Time;durP1;ratioP1;P1;durP2;ratioP2;P2;SDS_P1;SDS_P2;PMS_P1;PMS_P2;Temp;Humidity;BMP_temperature;BMP_pressure;BME280_temperature;BME280_humidity;BME280_pressure;Samples;Min_cycle;Max_cycle;Signal;HPM_P1;HPM_P2
2021/12/11 00:00:43;;;;;;;1.93;1.50;;;;;;;3.53;100.00;96791.03;5103777;28;20211;-67
2021/12/11 00:03:14;;;;;;;2.80;1.40;;;;;;;3.55;100.00;96793.56;5103767;28;20738;-67
2021/12/11 00:05:42;;;;;;;2.57;1.50;;;;;;;3.58;100.00;96811.63;5107552;28;20207;-67
2021/12/11 00:08:10;;;;;;;2.70;1.60;;;;;;;3.58;100.00;96817.72;5104965;28;20214;-67
2021/12/11 00:10:42;;;;;;;2.33;2.13;;;;;;;3.58;100.00;96814.25;5104107;28;20624;-67
2021/12/11 00:13:13;;;;;;;2.40;1.90;;;;;;;3.53;100.00;96832.81;5064244;28;20237;-66
2021/12/11 00:15:43;;;;;;;3.87;1.73;;;;;;;3.50;100.00;96846.09;5066924;28;20216;-66
2021/12/11 00:18:13;;;;;;;2.60;2.30;;;;;;;3.24;100.00;96844.22;5064676;28;20298;-66
2021/12/11 00:20:43;;;;;;;3.83;2.37;;;;;;;3.00;100.00;96866.56;5063531;28;20218;-65
2021/12/11 00:23:10;;;;;;;5.63;2.63;;;;;;;2.77;100.00;96863.63;5065669;28;20688;-65
2021/12/11 00:25:43;;;;;;;2.47;2.27;;;;;;;2.70;100.00;96852.72;5067046;28;20582;-64
2021/12/11 00:28:10;;;;;;;3.50;2.10;;;;;;;2.63;100.00;96867.03;5063214;28;20234;-64
2021/12/11 00:30:41;;;;;;;2.30;1.80;;;;;;;2.50;100.00;96870.47;5063247;28;20591;-64
2021/12/11 00:33:12;;;;;;;4.30;2.17;;;;;;;2.41;100.00;96865.75;5068150;28;20266;-64
2021/12/11 00:35:39;;;;;;;2.97;1.90;;;;;;;2.34;100.00;96869.66;5064831;28;20211;-64
2021/12/11 00:38:10;;;;;;;3.27;2.23;;;;;;;2.28;100.00;96877.81;5062902;28;20216;-64
2021/12/11 00:40:39;;;;;;;2.20;2.00;;;;;;;2.22;100.00;96876.41;5063692;28;20684;-64
2021/12/11 00:43:15;;;;;;;2.40;1.90;;;;;;;2.18;100.00;96890.53;5070725;28;20626;-64
2021/12/11 00:45:43;;;;;;;2.47;1.77;;;;;;;2.15;100.00;96890.69;5066191;28;20270;-64
2021/12/11 00:48:12;;;;;;;3.60;2.40;;;;;;;2.16;100.00;96899.34;5067720;28;20215;-65
2021/12/11 00:50:43;;;;;;;2.77;2.47;;;;;;;2.13;100.00;96907.31;5065563;28;20207;-64
2021/12/11 00:53:13;;;;;;;2.47;2.23;;;;;;;2.04;100.00;96906.09;5063892;28;20243;-64
2021/12/11 00:55:41;;;;;;;2.83;2.37;;;;;;;2.00;100.00;96912.38;5067300;28;20212;-64
2021/12/11 00:58:12;;;;;;;2.43;2.20;;;;;;;1.97;100.00;96912.53;5067196;28;20214;-64
2021/12/11 01:00:43;;;;;;;2.40;2.20;;;;;;;1.94;100.00;96917.94;5062058;28;20223;-64
2021/12/11 01:03:11;;;;;;;2.93;2.60;;;;;;;1.84;100.00;96921.94;5063989;28;20223;-65
2021/12/11 01:05:42;;;;;;;2.53;2.33;;;;;;;1.86;100.00;96927.09;5063786;28;20212;-64
2021/12/11 01:08:16;;;;;;;3.33;2.30;;;;;;;1.87;100.00;96934.81;5070980;28;20223;-64
2021/12/11 01:10:43;;;;;;;2.47;2.27;;;;;;;1.96;100.00;96939.53;5063538;28;20219;-65
2021/12/11 01:13:15;;;;;;;2.67;2.20;;;;;;;2.01;100.00;96942.72;5105808;28;20305;-64
2021/12/11 01:15:47;;;;;;;2.60;2.10;;;;;;;2.05;100.00;96952.06;5107514;28;21801;-64
2021/12/11 01:18:33;;;;;;;2.33;2.00;;;;;;;2.06;100.00;96953.75;5104960;28;20232;-65
2021/12/11 01:21:08;;;;;;;1.90;1.80;;;;;;;2.03;100.00;96964.31;5105148;28;20222;-65
2021/12/11 01:23:56;;;;;;;1.90;1.80;;;;;;;2.05;100.00;96964.25;5107373;28;20225;-65
2021/12/11 01:26:23;;;;;;;1.93;1.70;;;;;;;2.08;100.00;96971.91;5101817;28;20219;-65
2021/12/11 01:28:53;;;;;;;2.33;1.70;;;;;;;2.10;100.00;96973.50;5105334;28;20226;-65
2021/12/11 01:31:22;;;;;;;2.33;1.60;;;;;;;2.10;100.00;96986.53;5107143;28;20206;-65
2021/12/11 01:33:49;;;;;;;1.80;1.47;;;;;;;2.09;100.00;96989.22;5105434;28;20245;-65
2021/12/11 01:36:15;;;;;;;2.17;1.63;;;;;;;2.12;100.00;96995.09;5103132;28;20233;-65
2021/12/11 01:38:43;;;;;;;1.87;1.67;;;;;;;2.06;100.00;97005.84;5105096;28;20211;-65
2021/12/11 01:41:16;;;;;;;1.60;1.50;;;;;;;2.03;100.00;97006.00;5107167;28;20676;-65
2021/12/11 01:43:43;;;;;;;1.40;1.30;;;;;;;2.09;100.00;97016.09;5104806;28;20214;-65
2021/12/11 01:46:11;;;;;;;1.30;1.20;;;;;;;2.13;100.00;97027.19;5103172;28;20222;-65
2021/12/11 01:48:44;;;;;;;1.23;1.13;;;;;;;2.13;100.00;97037.63;5105702;28;20233;-65
2021/12/11 01:51:18;;;;;;;1.60;1.50;;;;;;;2.15;100.00;97034.00;5107177;28;20239;-66
2021/12/11 01:53:48;;;;;;;1.63;1.33;;;;;;;2.16;100.00;97038.34;5101551;28;20242;-66
2021/12/11 01:56:18;;;;;;;2.10;1.50;;;;;;;2.17;100.00;97045.22;5107801;28;20207;-66
2021/12/11 01:58:49;;;;;;;1.67;1.20;;;;;;;2.19;100.00;97053.78;5106860;28;20210;-66
2021/12/11 02:01:23;;;;;;;1.30;1.20;;;;;;;2.13;100.00;97061.94;5113790;28;20292;-66
2021/12/11 02:03:52;;;;;;;1.30;1.20;;;;;;;2.19;100.00;97055.53;5113745;28;20217;-66
2021/12/11 02:06:19;;;;;;;1.97;1.50;;;;;;;2.18;100.00;97064.28;5105790;28;20214;-66
2021/12/11 02:08:46;;;;;;;1.20;1.07;;;;;;;2.16;100.00;97073.97;5114234;28;20221;-66
2021/12/11 02:11:18;;;;;;;1.20;1.10;;;;;;;2.15;100.00;97073.09;5112921;28;20242;-67
2021/12/11 02:13:50;;;;;;;1.53;1.43;;;;;;;2.18;100.00;97078.16;5105229;28;20233;-66
2021/12/11 02:16:23;;;;;;;1.37;1.20;;;;;;;2.16;100.00;97076.56;5101426;28;20211;-66
2021/12/11 02:18:54;;;;;;;1.40;1.30;;;;;;;2.14;100.00;97087.06;5099571;28;20207;-66
2021/12/11 02:21:26;;;;;;;1.40;1.27;;;;;;;2.17;100.00;97081.72;5102259;28;20257;-66
2021/12/11 02:23:58;;;;;;;1.80;1.63;;;;;;;2.18;100.00;97095.56;5103667;28;20219;-66
2021/12/11 02:26:26;;;;;;;1.50;1.40;;;;;;;2.10;100.00;97100.34;5105833;28;20214;-66
2021/12/11 02:29:00;;;;;;;2.47;1.97;;;;;;;2.11;100.00;97096.81;5104612;28;20218;-67
2021/12/11 02:31:34;;;;;;;2.07;1.90;;;;;;;2.12;100.00;97106.31;5102139;28;20210;-66
2021/12/11 02:34:10;;;;;;;2.03;1.90;;;;;;;2.05;100.00;97111.00;5101175;28;20256;-67
2021/12/11 02:36:40;;;;;;;2.40;2.20;;;;;;;2.06;100.00;97119.66;5101581;28;20234;-67
2021/12/11 02:39:12;;;;;;;2.40;2.00;;;;;;;2.05;100.00;97124.03;5104694;28;20210;-67
2021/12/11 02:41:49;;;;;;;2.70;2.50;;;;;;;2.03;100.00;97125.84;5102601;28;20226;-67
2021/12/11 02:44:21;;;;;;;2.90;2.70;;;;;;;2.05;100.00;97133.59;5099344;28;20218;-67
2021/12/11 02:46:55;;;;;;;2.53;2.33;;;;;;;2.03;100.00;97136.28;5104421;28;20210;-67
2021/12/11 02:49:26;;;;;;;3.10;2.80;;;;;;;2.04;100.00;97143.22;5103912;28;20209;-67
2021/12/11 02:51:58;;;;;;;2.83;2.47;;;;;;;2.07;100.00;97143.03;5101030;28;20229;-67
2021/12/11 02:54:31;;;;;;;3.40;2.97;;;;;;;2.07;100.00;97148.25;5101745;28;20718;-67
2021/12/11 02:57:01;;;;;;;3.67;3.33;;;;;;;2.04;100.00;97153.63;5104539;28;20822;-67
2021/12/11 02:59:31;;;;;;;3.60;3.30;;;;;;;2.09;100.00;97156.81;5101532;28;20233;-67
2021/12/11 03:02:02;;;;;;;4.00;3.60;;;;;;;2.15;100.00;97160.88;5100904;28;20218;-67
2021/12/11 03:04:37;;;;;;;3.50;3.20;;;;;;;2.13;100.00;97163.56;5103885;28;20217;-67
2021/12/11 03:07:07;;;;;;;3.50;3.20;;;;;;;2.13;100.00;97157.50;5111794;28;20214;-67
2021/12/11 03:09:39;;;;;;;3.43;3.10;;;;;;;2.19;100.00;97170.22;5101093;28;20221;-67
2021/12/11 03:12:09;;;;;;;3.37;3.07;;;;;;;2.25;100.00;97178.56;5107638;28;20722;-67
2021/12/11 03:14:35;;;;;;;3.90;3.50;;;;;;;2.26;100.00;97175.03;5101521;28;20253;-67
2021/12/11 03:17:02;;;;;;;3.40;3.10;;;;;;;2.29;100.00;97179.25;5103624;28;20222;-67
2021/12/11 03:19:31;;;;;;;3.57;3.27;;;;;;;2.27;100.00;97187.16;5105569;28;20217;-67
2021/12/11 03:22:02;;;;;;;3.80;3.50;;;;;;;2.30;100.00;97194.84;5104246;28;20214;-67
2021/12/11 03:24:30;;;;;;;4.00;3.60;;;;;;;2.36;100.00;97202.34;5104946;28;20210;-67
2021/12/11 03:26:58;;;;;;;3.80;3.50;;;;;;;2.30;100.00;97200.03;5107985;28;20703;-67
2021/12/11 03:29:25;;;;;;;3.70;3.40;;;;;;;2.37;100.00;97204.00;5109466;28;20205;-67
2021/12/11 03:31:52;;;;;;;4.13;3.73;;;;;;;2.36;100.00;97219.72;5107821;28;20209;-67
2021/12/11 03:34:21;;;;;;;4.00;3.60;;;;;;;2.40;100.00;97218.66;5105790;28;20325;-67
2021/12/11 03:36:49;;;;;;;4.23;3.83;;;;;;;2.37;100.00;97224.88;5106673;28;20214;-67
2021/12/11 03:39:19;;;;;;;3.60;3.30;;;;;;;2.45;100.00;97234.91;5109588;28;20597;-68
2021/12/11 03:41:48;;;;;;;4.23;3.70;;;;;;;2.44;100.00;97241.88;5107175;28;20224;-67
2021/12/11 03:44:17;;;;;;;4.27;3.90;;;;;;;2.43;100.00;97244.56;5105440;28;20207;-67
2021/12/11 03:46:46;;;;;;;3.90;3.60;;;;;;;2.46;100.00;97257.47;5108896;28;20225;-67
2021/12/11 03:49:16;;;;;;;4.30;3.90;;;;;;;2.42;100.00;97254.16;5109467;28;20216;-68
2021/12/11 03:51:48;;;;;;;4.40;4.00;;;;;;;2.41;100.00;97262.91;5105823;28;20217;-68
2021/12/11 03:54:18;;;;;;;4.13;3.73;;;;;;;2.41;100.00;97273.34;5105509;28;20234;-68
2021/12/11 03:56:45;;;;;;;4.20;3.87;;;;;;;2.43;100.00;97266.28;5109105;28;20558;-67
2021/12/11 03:59:14;;;;;;;4.67;4.27;;;;;;;2.38;100.00;97272.66;5108994;28;20205;-68
2021/12/11 04:01:45;;;;;;;4.60;4.20;;;;;;;2.38;100.00;97281.31;5105278;28;20305;-67
2021/12/11 04:04:15;;;;;;;4.77;4.27;;;;;;;2.46;100.00;97281.75;5104966;28;20647;-68
2021/12/11 04:06:43;;;;;;;4.50;4.10;;;;;;;2.44;100.00;97291.44;5109348;28;20671;-68
2021/12/11 04:09:12;;;;;;;5.50;5.00;;;;;;;2.42;100.00;97298.50;5104891;28;20218;-68
2021/12/11 04:11:39;;;;;;;4.77;4.37;;;;;;;2.44;100.00;97301.03;5107443;28;20258;-68
2021/12/11 04:14:09;;;;;;;6.03;5.00;;;;;;;2.44;100.00;97306.25;5105283;28;21262;-67
2021/12/11 04:16:36;;;;;;;5.27;4.77;;;;;;;2.40;100.00;97313.34;5104006;28;20211;-67
2021/12/11 04:19:05;;;;;;;6.23;5.50;;;;;;;2.39;100.00;97321.28;5105395;28;20221;-68
2021/12/11 04:21:32;;;;;;;6.47;5.67;;;;;;;2.36;100.00;97322.25;5107392;28;20214;-67
2021/12/11 04:23:59;;;;;;;6.30;5.70;;;;;;;2.37;100.00;97323.09;5104891;28;20655;-67
2021/12/11 04:26:26;;;;;;;6.37;5.77;;;;;;;2.44;100.00;97332.31;5110082;28;20221;-68
2021/12/11 04:28:53;;;;;;;6.80;6.20;;;;;;;2.41;100.00;97330.72;5104878;28;20695;-68
2021/12/11 04:31:24;;;;;;;7.13;6.43;;;;;;;2.46;100.00;97344.34;5104680;28;20211;-68
2021/12/11 04:33:55;;;;;;;7.20;6.40;;;;;;;2.45;100.00;97347.88;5106297;28;20245;-68
2021/12/11 04:36:27;;;;;;;7.20;6.50;;;;;;;2.47;100.00;97353.88;5108217;28;20218;-68
2021/12/11 04:38:55;;;;;;;7.87;7.07;;;;;;;2.44;100.00;97353.19;5104894;28;20592;-68
2021/12/11 04:41:28;;;;;;;8.03;7.23;;;;;;;2.49;100.00;97364.22;5104519;28;20215;-68
2021/12/11 04:43:57;;;;;;;7.87;7.07;;;;;;;2.50;100.00;97358.91;5103255;28;20219;-68
2021/12/11 04:46:24;;;;;;;7.73;6.93;;;;;;;2.54;100.00;97370.03;5103002;28;20675;-68
2021/12/11 04:48:58;;;;;;;9.67;8.17;;;;;;;2.45;100.00;97363.50;5106693;28;20252;-68
2021/12/11 04:51:35;;;;;;;8.40;7.37;;;;;;;2.46;100.00;97375.63;5105265;28;20674;-68
2021/12/11 04:54:12;;;;;;;8.40;7.50;;;;;;;2.56;100.00;97382.09;5102327;28;20672;-67
2021/12/11 04:57:06;;;;;;;8.30;7.17;;;;;;;2.55;100.00;97388.22;5106299;28;20292;-68
2021/12/11 04:59:46;;;;;;;8.43;7.50;;;;;;;2.54;100.00;97396.13;5103036;28;20284;-67
2021/12/11 05:02:45;;;;;;;8.67;6.93;;;;;;;2.53;100.00;97405.72;5103802;28;20213;-68
2021/12/11 05:05:19;;;;;;;9.63;7.80;;;;;;;2.54;100.00;97394.38;5106199;28;20252;-68
2021/12/11 05:08:00;;;;;;;8.47;7.57;;;;;;;2.51;100.00;97404.94;5108755;28;20214;-68
2021/12/11 05:10:36;;;;;;;8.53;7.63;;;;;;;2.48;100.00;97410.31;5103990;28;20304;-67
2021/12/11 05:13:03;;;;;;;9.90;8.90;;;;;;;2.52;100.00;97421.44;5104953;28;20241;-67
2021/12/11 05:15:32;;;;;;;9.03;8.07;;;;;;;2.56;100.00;97423.00;5107556;28;20685;-68
2021/12/11 05:18:00;;;;;;;11.20;9.13;;;;;;;2.57;100.00;97424.69;5106549;28;20218;-68
2021/12/11 05:20:30;;;;;;;9.37;8.47;;;;;;;2.53;100.00;97438.78;5102131;28;20222;-67
2021/12/11 05:22:59;;;;;;;9.40;8.43;;;;;;;2.54;100.00;97441.31;5106064;28;20215;-67
2021/12/11 05:25:25;;;;;;;9.20;8.00;;;;;;;2.58;100.00;97447.22;5107700;28;20213;-68
2021/12/11 05:27:53;;;;;;;9.90;7.80;;;;;;;2.54;100.00;97451.75;5105864;28;20218;-67
2021/12/11 05:30:23;;;;;;;9.57;8.57;;;;;;;2.45;100.00;97456.56;5103403;28;20207;-68
2021/12/11 05:32:50;;;;;;;8.13;7.33;;;;;;;2.47;100.00;97460.78;5105697;28;20664;-68
2021/12/11 05:35:18;;;;;;;9.37;8.43;;;;;;;2.45;100.00;97470.44;5106918;27;20236;-68
2021/12/11 05:37:45;;;;;;;10.33;8.17;;;;;;;2.50;100.00;97476.28;5105149;28;20225;-68
2021/12/11 05:40:18;;;;;;;9.03;8.13;;;;;;;2.50;100.00;97480.66;5103396;28;20214;-68
2021/12/11 05:42:44;;;;;;;9.47;7.93;;;;;;;2.44;100.00;97487.00;5110843;28;20221;-68
2021/12/11 05:45:11;;;;;;;8.47;7.60;;;;;;;2.41;100.00;97492.38;5101695;28;20210;-68
2021/12/11 05:47:37;;;;;;;9.37;7.97;;;;;;;2.46;100.00;97505.19;5102400;28;20214;-68
2021/12/11 05:50:06;;;;;;;9.30;7.73;;;;;;;2.42;100.00;97501.88;5105820;28;20233;-67
2021/12/11 05:52:32;;;;;;;8.73;7.83;;;;;;;2.45;100.00;97503.50;5102659;28;20646;-68
2021/12/11 05:54:59;;;;;;;8.60;7.70;;;;;;;2.49;100.00;97508.50;5102010;28;20597;-68
2021/12/11 05:57:28;;;;;;;9.10;8.03;;;;;;;2.54;100.00;97519.56;5103901;28;20221;-67
2021/12/11 05:59:55;;;;;;;11.73;8.23;;;;;;;2.61;100.00;97530.53;5105931;28;20550;-68
2021/12/11 06:02:25;;;;;;;8.60;7.70;;;;;;;2.60;100.00;97534.91;5102676;28;20889;-68
2021/12/11 06:04:55;;;;;;;10.17;9.10;;;;;;;2.60;100.00;97536.66;5101456;28;20215;-68
2021/12/11 06:07:23;;;;;;;9.67;8.77;;;;;;;2.61;100.00;97539.22;5106425;28;20215;-68
2021/12/11 06:09:54;;;;;;;9.50;8.50;;;;;;;2.62;100.00;97553.94;5105619;28;20221;-67
2021/12/11 06:12:22;;;;;;;9.83;8.83;;;;;;;2.66;100.00;97555.50;5099403;28;20234;-68
2021/12/11 06:14:51;;;;;;;9.67;8.67;;;;;;;2.69;100.00;97560.56;5101227;28;20241;-67
2021/12/11 06:17:21;;;;;;;9.57;8.57;;;;;;;2.61;100.00;97567.06;5106407;28;20222;-67
2021/12/11 06:19:51;;;;;;;10.40;9.30;;;;;;;2.54;100.00;97576.94;5104441;28;20214;-67
2021/12/11 06:22:18;;;;;;;11.53;9.67;;;;;;;2.51;100.00;97584.91;5101254;28;20272;-68
2021/12/11 06:24:45;;;;;;;10.03;9.03;;;;;;;2.44;100.00;97586.09;5101384;28;20210;-68
2021/12/11 06:27:12;;;;;;;11.43;10.20;;;;;;;2.42;100.00;97592.28;5105185;28;20221;-68
2021/12/11 06:29:38;;;;;;;13.37;10.57;;;;;;;2.40;100.00;97594.97;5104572;28;20229;-67
2021/12/11 06:32:07;;;;;;;11.67;10.03;;;;;;;2.42;100.00;97598.38;5101256;28;20694;-68
2021/12/11 06:34:34;;;;;;;11.67;10.13;;;;;;;2.45;100.00;97606.03;5101257;28;20235;-67
2021/12/11 06:37:00;;;;;;;11.47;9.70;;;;;;;2.49;100.00;97604.13;5105014;28;20258;-67
2021/12/11 06:39:27;;;;;;;14.27;11.10;;;;;;;2.54;100.00;97613.47;5102810;28;20225;-68
2021/12/11 06:42:00;;;;;;;10.20;8.97;;;;;;;2.50;100.00;97622.31;5101221;28;20218;-68
2021/12/11 06:44:28;;;;;;;11.90;10.17;;;;;;;2.46;100.00;97628.59;5101378;28;20218;-68
2021/12/11 06:46:57;;;;;;;13.40;10.17;;;;;;;2.42;100.00;97634.88;5104744;27;20227;-68
2021/12/11 06:49:26;;;;;;;11.97;10.03;;;;;;;2.41;100.00;97638.41;5103544;28;20304;-68
2021/12/11 06:51:53;;;;;;;12.17;10.13;;;;;;;2.47;100.00;97640.75;5100724;28;20668;-67
2021/12/11 06:54:20;;;;;;;13.57;10.20;;;;;;;2.43;100.00;97646.13;5101512;28;20246;-67
2021/12/11 06:56:48;;;;;;;12.83;10.50;;;;;;;2.54;100.00;97651.72;5109857;28;20213;-67
2021/12/11 06:59:15;;;;;;;14.87;11.77;;;;;;;2.50;100.00;97656.22;5103016;28;20217;-67
2021/12/11 07:01:42;;;;;;;13.20;10.70;;;;;;;2.48;100.00;97665.91;5100978;28;20211;-68
2021/12/11 07:04:11;;;;;;;13.60;10.53;;;;;;;2.37;100.00;97672.47;5100301;28;20226;-67
2021/12/11 07:06:43;;;;;;;13.33;11.00;;;;;;;2.43;100.00;97669.59;5107641;28;20221;-67
2021/12/11 07:09:11;;;;;;;13.97;11.60;;;;;;;2.36;100.00;97689.03;5109529;28;20210;-67
2021/12/11 07:11:40;;;;;;;16.23;11.23;;;;;;;2.45;100.00;97689.50;5100495;28;20245;-67
2021/12/11 07:14:08;;;;;;;14.07;11.20;;;;;;;2.46;100.00;97699.00;5102373;28;20234;-67
2021/12/11 07:16:34;;;;;;;15.30;11.67;;;;;;;2.52;100.00;97714.38;5104290;28;20213;-67
2021/12/11 07:19:01;;;;;;;14.23;11.13;;;;;;;2.56;100.00;97715.94;5101743;28;20218;-68
2021/12/11 07:21:28;;;;;;;15.57;12.27;;;;;;;2.56;100.00;97726.38;5105009;28;20226;-67
2021/12/11 07:23:56;;;;;;;15.23;12.37;;;;;;;2.62;100.00;97725.25;5108798;28;20210;-68
2021/12/11 07:26:30;;;;;;;15.33;12.47;;;;;;;2.68;100.00;97732.81;5106833;28;20214;-67
2021/12/11 07:28:59;;;;;;;14.67;12.53;;;;;;;2.70;100.00;97739.66;5093668;28;20251;-67
2021/12/11 07:31:26;;;;;;;16.67;12.50;;;;;;;2.69;100.00;97744.97;5092900;28;20210;-67
2021/12/11 07:33:53;;;;;;;16.33;12.03;;;;;;;2.71;100.00;97746.59;5097637;28;20220;-68
2021/12/11 07:36:21;;;;;;;15.07;11.80;;;;;;;2.69;100.00;97756.22;5094624;28;20690;-67
2021/12/11 07:38:48;;;;;;;17.70;13.13;;;;;;;2.69;100.00;97753.63;5094929;28;20215;-68
2021/12/11 07:41:17;;;;;;;15.67;11.87;;;;;;;2.65;100.00;97766.88;5094575;28;20217;-67
2021/12/11 07:43:46;;;;;;;15.37;12.13;;;;;;;2.66;100.00;97766.81;5097564;28;20218;-68
2021/12/11 07:46:16;;;;;;;16.00;12.83;;;;;;;2.68;100.00;97772.81;5094674;28;20218;-67
2021/12/11 07:48:44;;;;;;;16.87;12.67;;;;;;;2.70;100.00;97780.56;5094871;28;20229;-67
2021/12/11 07:51:12;;;;;;;15.30;12.60;;;;;;;2.70;100.00;97786.63;5094694;28;20218;-67
2021/12/11 07:53:38;;;;;;;15.40;11.80;;;;;;;2.75;100.00;97800.31;5097646;28;20667;-67
2021/12/11 07:56:05;;;;;;;14.90;11.77;;;;;;;2.70;100.00;97802.28;5094901;28;20239;-67
2021/12/11 07:58:34;;;;;;;15.93;11.43;;;;;;;2.68;100.00;97813.69;5093140;28;20675;-67
2021/12/11 08:01:03;;;;;;;17.03;12.93;;;;;;;2.62;100.00;97820.03;5094528;28;20664;-67
2021/12/11 08:03:29;;;;;;;16.37;11.97;;;;;;;2.68;100.00;97824.13;5105430;28;20301;-67
2021/12/11 08:05:56;;;;;;;17.30;12.40;;;;;;;2.65;100.00;97835.56;5106387;28;20230;-67
2021/12/11 08:08:24;;;;;;;15.07;11.83;;;;;;;2.67;100.00;97838.94;5091319;28;20687;-67
2021/12/11 08:10:54;;;;;;;15.97;11.93;;;;;;;2.74;100.00;97848.19;5096817;28;20277;-68
2021/12/11 08:13:22;;;;;;;14.50;11.37;;;;;;;2.80;100.00;97850.53;5108263;28;20226;-68
2021/12/11 08:15:50;;;;;;;14.63;11.67;;;;;;;2.75;100.00;97851.66;5110259;28;20245;-68
2021/12/11 08:18:20;;;;;;;14.83;11.83;;;;;;;2.75;100.00;97857.72;5107085;28;20218;-67
2021/12/11 08:20:48;;;;;;;13.47;10.67;;;;;;;2.79;100.00;97868.88;5108934;28;20293;-67
2021/12/11 08:23:17;;;;;;;15.47;11.60;;;;;;;2.77;100.00;97874.19;5111530;28;20233;-67
2021/12/11 08:25:47;;;;;;;14.43;11.77;;;;;;;2.80;100.00;97881.00;5111667;28;20213;-67
2021/12/11 08:28:18;;;;;;;16.83;12.77;;;;;;;2.67;100.00;97875.47;5109594;27;20211;-67
2021/12/11 08:30:49;;;;;;;18.03;13.67;;;;;;;2.69;100.00;97885.84;5112229;28;20218;-67
2021/12/11 08:33:18;;;;;;;16.80;12.37;;;;;;;2.72;100.00;97883.97;5112131;28;20592;-67
2021/12/11 08:35:45;;;;;;;16.63;12.27;;;;;;;2.77;100.00;97891.59;5111362;28;20238;-65
2021/12/11 08:38:12;;;;;;;16.50;12.37;;;;;;;2.75;100.00;97899.47;5109897;28;20215;-67
2021/12/11 08:40:41;;;;;;;16.80;11.53;;;;;;;2.74;100.00;97902.13;5112039;28;20210;-67
2021/12/11 08:43:10;;;;;;;15.97;12.20;;;;;;;2.77;100.00;97907.25;5111723;28;20229;-67
2021/12/11 08:45:46;;;;;;;14.83;11.27;;;;;;;2.79;100.00;97910.63;5111030;28;20210;-67
2021/12/11 08:48:15;;;;;;;15.07;12.33;;;;;;;2.79;100.00;97916.69;5111523;28;20249;-67
2021/12/11 08:50:45;;;;;;;15.57;11.77;;;;;;;2.81;100.00;97922.69;5109160;28;20222;-67
2021/12/11 08:53:12;;;;;;;15.23;12.27;;;;;;;2.79;100.00;97921.91;5110440;28;20218;-67
2021/12/11 08:55:42;;;;;;;13.63;10.20;;;;;;;2.84;100.00;97930.41;5110582;28;20608;-67
2021/12/11 08:58:12;;;;;;;15.60;12.40;;;;;;;2.83;100.00;97933.94;5108344;28;20210;-67
2021/12/11 09:00:43;;;;;;;15.57;12.40;;;;;;;2.81;100.00;97943.56;5111661;28;20214;-67
2021/12/11 09:03:16;;;;;;;18.83;13.93;;;;;;;2.85;100.00;97955.59;5111757;27;20214;-67
2021/12/11 09:05:47;;;;;;;20.10;15.20;;;;;;;2.91;100.00;97954.47;5100805;28;20213;-67
2021/12/11 09:08:19;;;;;;;21.47;14.87;;;;;;;2.95;100.00;97964.72;5108692;28;20217;-67
2021/12/11 09:10:51;;;;;;;23.67;16.27;;;;;;;2.97;100.00;97956.84;5110206;28;20214;-68
2021/12/11 09:13:23;;;;;;;19.33;14.57;;;;;;;2.93;100.00;97963.94;5110177;28;20698;-67
2021/12/11 09:15:55;;;;;;;18.60;13.93;;;;;;;3.00;100.00;97962.78;5107761;28;20242;-67
2021/12/11 09:18:27;;;;;;;21.00;16.03;;;;;;;3.03;100.00;97962.66;5109863;28;20225;-68
2021/12/11 09:20:59;;;;;;;18.43;13.77;;;;;;;3.13;100.00;97974.38;5111031;28;20683;-68
2021/12/11 09:23:31;;;;;;;17.10;13.00;;;;;;;3.21;100.00;97971.47;5102167;28;20214;-68
2021/12/11 09:26:06;;;;;;;16.43;12.93;;;;;;;3.19;100.00;97984.56;5101502;28;20210;-68
2021/12/11 09:28:37;;;;;;;16.30;12.40;;;;;;;3.24;100.00;97980.00;5099988;28;20214;-68
2021/12/11 09:31:08;;;;;;;15.67;11.57;;;;;;;3.29;100.00;97990.25;5102890;28;20234;-68
2021/12/11 09:33:40;;;;;;;14.50;10.97;;;;;;;3.33;100.00;97990.06;5107594;28;20706;-68
2021/12/11 09:36:11;;;;;;;14.00;10.77;;;;;;;3.41;100.00;97995.81;5110728;28;20229;-68
2021/12/11 09:38:44;;;;;;;16.13;11.47;;;;;;;3.42;100.00;97997.50;5110776;28;20210;-68
2021/12/11 09:41:20;;;;;;;14.50;10.90;;;;;;;3.51;100.00;98001.50;5109159;28;20569;-68
2021/12/11 09:43:52;;;;;;;13.63;11.03;;;;;;;3.45;100.00;98007.84;5109334;28;20262;-68
2021/12/11 09:46:23;;;;;;;12.87;9.83;;;;;;;3.57;100.00;98012.53;5109740;27;20213;-68
2021/12/11 09:48:52;;;;;;;15.07;10.83;;;;;;;3.65;100.00;98009.56;5107761;28;20211;-68
2021/12/11 09:51:25;;;;;;;11.70;9.80;;;;;;;3.75;100.00;98018.72;5110464;28;20206;-68
2021/12/11 09:53:55;;;;;;;12.87;10.27;;;;;;;3.77;100.00;98024.72;5110683;28;20214;-67
2021/12/11 09:56:28;;;;;;;12.43;9.97;;;;;;;3.73;100.00;98021.38;5110123;28;20622;-68
2021/12/11 09:58:56;;;;;;;11.27;9.10;;;;;;;3.80;100.00;98030.66;5108936;28;20207;-67
2021/12/11 10:01:27;;;;;;;10.90;8.83;;;;;;;3.82;100.00;98030.59;5110455;28;20560;-68
2021/12/11 10:03:57;;;;;;;10.67;8.60;;;;;;;3.90;100.00;98031.94;5110447;28;20593;-68
2021/12/11 10:06:41;;;;;;;14.43;9.43;;;;;;;3.93;100.00;98039.69;5100763;28;20374;-68
2021/12/11 10:09:19;;;;;;;9.00;8.10;;;;;;;3.93;100.00;98042.28;5107706;28;20215;-68
2021/12/11 10:11:51;;;;;;;8.77;7.87;;;;;;;3.98;100.00;98048.13;5110397;28;20241;-68
2021/12/11 10:14:22;;;;;;;9.50;8.43;;;;;;;4.03;100.00;98053.19;5107868;28;20217;-68
2021/12/11 10:16:52;;;;;;;9.13;7.20;;;;;;;4.00;100.00;98053.31;5106249;28;20237;-68
2021/12/11 10:19:22;;;;;;;8.37;7.23;;;;;;;3.94;100.00;98054.44;5110438;28;20214;-68
2021/12/11 10:21:52;;;;;;;10.23;7.43;;;;;;;3.95;100.00;98055.28;5110026;28;20221;-68
2021/12/11 10:24:22;;;;;;;8.13;7.10;;;;;;;3.94;100.00;98054.44;5100715;28;20226;-68
2021/12/11 10:26:50;;;;;;;8.87;7.93;;;;;;;3.92;100.00;98060.66;5101291;28;20221;-68
2021/12/11 10:29:18;;;;;;;10.73;7.50;;;;;;;4.00;100.00;98063.75;5099030;28;20239;-68
2021/12/11 10:31:49;;;;;;;8.97;6.50;;;;;;;4.08;100.00;98070.34;5098873;28;20214;-66
2021/12/11 10:34:18;;;;;;;9.17;7.87;;;;;;;4.15;100.00;98057.88;5102864;28;20589;-66
2021/12/11 10:36:49;;;;;;;9.90;7.73;;;;;;;4.18;100.00;98069.03;5098852;28;20238;-66
2021/12/11 10:39:17;;;;;;;8.33;6.63;;;;;;;4.22;100.00;98073.19;5098872;28;20705;-66
2021/12/11 10:41:45;;;;;;;8.40;7.03;;;;;;;4.20;100.00;98066.34;5100593;28;20215;-66
2021/12/11 10:44:14;;;;;;;7.27;6.57;;;;;;;4.25;100.00;98069.59;5102751;28;20259;-66
2021/12/11 10:46:45;;;;;;;9.30;7.47;;;;;;;4.21;100.00;98079.34;5102398;28;20679;-66
2021/12/11 10:49:15;;;;;;;7.63;6.77;;;;;;;4.23;100.00;98080.13;5109768;28;20257;-66
2021/12/11 10:51:46;;;;;;;8.53;7.10;;;;;;;4.28;100.00;98088.63;5107046;28;20218;-66
2021/12/11 10:54:15;;;;;;;8.00;6.50;;;;;;;4.23;100.00;98085.34;5105971;28;20220;-66
2021/12/11 10:56:43;;;;;;;8.13;7.07;;;;;;;4.25;100.00;98088.78;5109362;28;20233;-66
2021/12/11 10:59:13;;;;;;;7.27;6.27;;;;;;;4.34;100.00;98090.97;5109245;28;20225;-68
2021/12/11 11:01:44;;;;;;;9.33;6.80;;;;;;;4.36;100.00;98099.59;5106753;28;20215;-66
2021/12/11 11:04:13;;;;;;;7.63;6.47;;;;;;;4.37;100.00;98101.31;5107873;28;20211;-66
2021/12/11 11:06:42;;;;;;;8.33;6.83;;;;;;;4.36;100.00;98101.34;5106620;28;20206;-66
2021/12/11 11:09:10;;;;;;;7.47;6.33;;;;;;;4.31;100.00;98104.19;5108594;28;20255;-68
2021/12/11 11:11:39;;;;;;;9.20;7.23;;;;;;;4.39;100.00;98106.47;5106203;28;20253;-67
2021/12/11 11:14:07;;;;;;;8.13;6.47;;;;;;;4.39;100.00;98107.31;5107159;28;20214;-68
2021/12/11 11:16:35;;;;;;;7.33;5.90;;;;;;;4.43;100.00;98116.72;5108256;28;20235;-68
2021/12/11 11:19:03;;;;;;;7.27;6.57;;;;;;;4.46;100.00;98113.94;5108036;28;20587;-67
2021/12/11 11:21:34;;;;;;;8.83;6.53;;;;;;;4.51;100.00;98116.34;5105940;28;20220;-66
2021/12/11 11:24:02;;;;;;;7.00;6.30;;;;;;;4.59;100.00;98127.34;5107237;28;20215;-65
2021/12/11 11:26:33;;;;;;;7.70;6.50;;;;;;;4.74;100.00;98131.84;5108282;28;20214;-66
2021/12/11 11:29:02;;;;;;;6.90;6.00;;;;;;;4.72;100.00;98124.09;5107332;28;20685;-66
2021/12/11 11:31:34;;;;;;;7.80;6.70;;;;;;;4.66;100.00;98127.00;5103538;28;20215;-65
2021/12/11 11:34:01;;;;;;;8.63;6.53;;;;;;;4.74;100.00;98132.72;5098675;28;20264;-66
2021/12/11 11:36:30;;;;;;;7.93;6.33;;;;;;;4.71;100.00;98137.25;5108012;28;20243;-64
2021/12/11 11:38:59;;;;;;;7.00;5.97;;;;;;;4.52;100.00;98146.88;5107373;28;20306;-64
2021/12/11 11:41:28;;;;;;;7.47;6.40;;;;;;;4.48;100.00;98140.91;5104923;28;20210;-68